Terminal Aerodrome Forecast
Issued by NWS Upton, NY

Home | Current Version | Previous Version | Text Only | Print | Product List | Glossary On
Versions: 1 2 3 4 5 6 7 8 9 10 11 12 13 14 15 16 17 18 19 20 21 22 23 24 25 26 27 28 29 30 31 32 33
000
FTUS41 KOKX 300915 AAA
TAFLGA
TAF AMD
KLGA 300915Z 3009/3106 16006KT 3SM SHRA BR SCT006 BKN035
      TEMPO 3009/3011 2SM SHRA BR SCT006 OVC015
     FM301200 21005KT 4SM -SHRA BR OVC007
     FM301600 21006KT 4SM BR VCSH BKN015
     FM301800 17009KT 6SM HZ VCSH BKN015
     FM302200 18010KT 4SM -SHRA BR SCT007 BKN009
     FM310100 20007KT 2SM -SHRA BR BKN007
     FM310400 25006KT 4SM BR SCT009 BKN015=

USA.gov is the U.S. government's official web portal to all federal, state and local government web resources and services.